MUCU/SCU METAR and TAF weather

Enter ICAO airport designator
Station Type Date Time Source
MUCU METAR 2023/02/05 22:50 UTC NOAA

MUCU 052250Z 24006KT 9000 FEW020 26/21 Q1017


Station Type Date Time Source
MUCU Decoded METAR 2023/02/05 22:50 UTC NOAA

Santiago De Cuba, Oriente, Cuba (MUCU) 19-58N 075-51W 55M
Feb 05, 2023 - 05:50 PM EST / 2023.02.05 2250 UTC
Wind: from the WSW (240 degrees) at 7 MPH (6 KT):0
Visibility: 5 mile(s):0
Sky conditions: mostly clear
Temperature: 78 F (26 C)
Dew Point: 69 F (21 C)
Relative Humidity: 73%
Pressure (altimeter): 30.03 in. Hg (1017 hPa)
ob: MUCU 052250Z 24006KT 9000 FEW020 26/21 Q1017
cycle: 23

Station Type Date Time Source
MUCU TAF 2023/02/05 18:03 UTC NOAA

TAF MUCU 051700Z 0518/0618 15008KT 9000 SCT020
BECMG 0603/0605 36005KT
BECMG 0615/0617 15008KT

Example: see airport list